createdAt,value
2023-05-10T00:03:05.831Z,8.25
2023-05-10T00:08:02.366Z,6.50
2023-05-10T00:12:59.184Z,6.78
2023-05-10T00:17:56.015Z,6.10
2023-05-10T00:22:52.477Z,8.15
2023-05-10T00:27:50.695Z,7.38
2023-05-10T00:32:49.065Z,7.32
2023-05-10T00:37:46.046Z,6.20
2023-05-10T00:42:42.566Z,8.80
2023-05-10T00:47:40.090Z,7.15
2023-05-10T00:52:36.695Z,11.02
2023-05-10T00:57:33.482Z,8.27
2023-05-10T01:02:29.901Z,6.47
2023-05-10T01:07:26.490Z,6.82
2023-05-10T01:12:23.422Z,7.18
2023-05-10T01:17:20.863Z,7.55
2023-05-10T01:22:46.396Z,8.10
2023-05-10T01:27:51.529Z,6.00
2023-05-10T01:33:00.760Z,8.63
2023-05-10T01:37:57.126Z,10.27
2023-05-10T01:42:57.433Z,10.50
2023-05-10T01:48:00.214Z,8.63
2023-05-10T01:53:00.226Z,5.57
2023-05-10T01:58:06.816Z,8.68
2023-05-10T02:03:08.236Z,8.52
2023-05-10T02:08:07.681Z,8.82
2023-05-10T02:13:04.964Z,9.65
2023-05-10T02:18:03.524Z,7.60
2023-05-10T02:23:01.839Z,7.10
2023-05-10T02:28:00.978Z,9.20
2023-05-10T02:32:58.211Z,6.43
2023-05-10T02:37:55.617Z,7.88
2023-05-10T02:42:55.545Z,7.45
2023-05-10T02:47:52.132Z,7.13
2023-05-10T02:52:55.082Z,7.80
2023-05-10T02:58:00.879Z,6.38
2023-05-10T03:02:59.806Z,7.00
2023-05-10T03:07:56.579Z,9.80
2023-05-10T03:13:29.280Z,10.20
2023-05-10T03:18:28.550Z,7.28
2023-05-10T03:23:34.613Z,7.47
2023-05-10T03:28:32.539Z,7.80
2023-05-10T03:46:18.064Z,6.18
2023-05-10T03:51:15.599Z,6.80
2023-05-10T03:56:12.147Z,7.22
2023-05-10T04:01:08.789Z,6.07
2023-05-10T04:06:06.326Z,10.70
2023-05-10T04:11:13.595Z,6.47
2023-05-10T04:16:10.212Z,7.32
2023-05-10T04:21:13.198Z,7.05
2023-05-10T04:26:09.790Z,7.43
2023-05-10T04:31:08.796Z,7.00
2023-05-10T04:36:15.061Z,13.30
2023-05-10T04:41:12.544Z,7.55
2023-05-10T04:46:09.019Z,6.63
2023-05-10T04:51:07.310Z,7.13
2023-05-10T04:56:04.069Z,6.85
2023-05-10T05:01:08.384Z,9.40
2023-05-10T05:06:04.933Z,7.90
2023-05-10T05:11:01.572Z,10.20
2023-05-10T05:15:58.065Z,12.50
2023-05-10T05:20:54.548Z,7.72
2023-05-10T05:25:52.657Z,7.13
2023-05-10T05:30:49.118Z,7.95
2023-05-10T05:35:51.481Z,11.40
2023-05-10T05:40:47.916Z,8.50
2023-05-10T05:45:44.441Z,8.77
2023-05-10T05:50:40.977Z,10.10
2023-05-10T05:55:38.444Z,9.05
2023-05-10T06:00:35.196Z,7.78
2023-05-10T06:05:31.626Z,9.60
2023-05-10T06:10:28.058Z,8.15
2023-05-10T06:15:24.503Z,8.02
2023-05-10T06:20:21.012Z,9.40
2023-05-10T06:25:19.012Z,8.05
2023-05-10T06:30:16.142Z,8.25
2023-05-10T06:35:12.587Z,8.18
2023-05-10T06:40:10.176Z,11.50
2023-05-10T06:45:07.380Z,8.10
2023-05-10T06:50:04.181Z,8.68
2023-05-10T06:55:01.189Z,8.57
2023-05-10T06:59:57.913Z,8.98
2023-05-10T07:04:54.950Z,8.98
2023-05-10T07:09:52.147Z,9.48
2023-05-10T07:14:48.647Z,8.63
2023-05-10T07:19:45.083Z,9.15
2023-05-10T07:24:41.768Z,8.30
2023-05-10T07:29:38.406Z,8.80
2023-05-10T07:34:37.702Z,9.40
2023-05-10T07:39:34.088Z,9.30
2023-05-10T07:44:30.610Z,9.48
2023-05-10T07:49:27.109Z,10.05
2023-05-10T07:54:23.676Z,11.32
2023-05-10T07:59:20.227Z,9.27
2023-05-10T08:04:17.045Z,9.38
2023-05-10T08:09:14.226Z,9.20
2023-05-10T08:14:10.750Z,10.15
2023-05-10T08:19:07.371Z,15.52
2023-05-10T08:24:03.914Z,9.73
2023-05-10T08:29:00.365Z,9.68
2023-05-10T08:33:56.833Z,9.55
2023-05-10T08:38:53.860Z,10.02
2023-05-10T08:43:51.640Z,9.20
2023-05-10T08:48:51.289Z,10.88
2023-05-10T08:53:48.437Z,8.23
2023-05-10T08:58:45.378Z,8.32
2023-05-10T09:03:42.102Z,10.63
2023-05-10T09:08:38.635Z,8.50
2023-05-10T09:13:37.200Z,9.13
2023-05-10T09:18:34.259Z,10.63
2023-05-10T09:23:33.202Z,9.13
2023-05-10T09:28:33.327Z,9.13
2023-05-10T09:33:29.844Z,9.45
2023-05-10T09:38:26.292Z,8.18
2023-05-10T09:43:22.700Z,8.25
2023-05-10T09:48:19.112Z,9.20
2023-05-10T09:53:16.801Z,8.57
2023-05-10T09:58:15.319Z,11.45
2023-05-10T10:03:16.605Z,9.98
2023-05-10T10:08:13.856Z,10.55
2023-05-10T10:13:11.385Z,11.23
2023-05-10T10:18:12.534Z,10.43
2023-05-10T10:23:09.469Z,10.15
2023-05-10T10:28:52.833Z,12.32
2023-05-10T10:33:57.903Z,12.20
2023-05-10T10:39:02.085Z,14.13
2023-05-10T10:44:23.653Z,11.93
2023-05-10T10:49:20.060Z,14.13
2023-05-10T10:54:29.103Z,13.70
2023-05-10T10:59:37.665Z,12.07
2023-05-10T11:04:48.168Z,12.45
2023-05-10T11:09:44.714Z,13.00
2023-05-10T11:14:41.199Z,12.30
2023-05-10T11:19:39.956Z,13.43
2023-05-10T11:24:36.724Z,13.48
2023-05-10T11:29:33.239Z,11.98
2023-05-10T11:34:31.379Z,16.55
2023-05-10T11:39:29.463Z,13.15
2023-05-10T11:44:33.172Z,13.05
2023-05-10T11:49:30.198Z,14.05
2023-05-10T11:54:26.656Z,15.40
2023-05-10T11:59:23.069Z,13.43
2023-05-10T12:04:20.144Z,15.15
2023-05-10T12:09:19.257Z,13.73
2023-05-10T12:14:20.839Z,13.68
2023-05-10T12:19:23.719Z,14.70
2023-05-10T12:24:22.428Z,14.98
2023-05-10T12:29:19.965Z,15.77
2023-05-10T12:34:26.766Z,15.18
2023-05-10T12:39:23.851Z,13.25
2023-05-10T12:44:20.437Z,13.52
2023-05-10T12:49:17.701Z,15.77
2023-05-10T12:54:14.152Z,16.08
2023-05-10T12:59:10.605Z,14.40
2023-05-10T13:04:07.278Z,15.38
2023-05-10T13:09:03.761Z,12.15
2023-05-10T13:14:00.358Z,12.73
2023-05-10T13:18:56.992Z,13.73
2023-05-10T13:23:56.548Z,11.32
2023-05-10T13:28:53.022Z,11.57
2023-05-10T13:33:49.553Z,11.68
2023-05-10T13:38:46.550Z,11.43
2023-05-10T13:43:43.047Z,12.30
2023-05-10T13:48:39.487Z,11.98
2023-05-10T13:53:35.903Z,12.32
2023-05-10T13:58:32.367Z,13.23
2023-05-10T14:03:28.995Z,11.82
2023-05-10T14:08:25.524Z,11.43
2023-05-10T14:13:22.115Z,12.32
2023-05-10T14:18:18.647Z,11.88
2023-05-10T14:23:15.121Z,12.32
2023-05-10T14:28:13.129Z,11.73
2023-05-10T14:33:09.816Z,11.35
2023-05-10T14:38:06.244Z,11.35
2023-05-10T14:43:02.755Z,10.68
2023-05-10T14:47:59.241Z,10.52
2023-05-10T14:52:59.946Z,9.63
2023-05-10T14:57:56.408Z,11.00
2023-05-10T15:02:52.911Z,10.77
2023-05-10T15:07:49.914Z,11.05
2023-05-10T15:12:46.413Z,10.85
2023-05-10T15:17:42.899Z,11.10
2023-05-10T15:22:39.481Z,10.68
2023-05-10T15:27:36.324Z,10.25
2023-05-10T15:32:32.820Z,10.82
2023-05-10T15:37:29.328Z,10.02
2023-05-10T15:42:25.731Z,10.32
2023-05-10T15:47:22.298Z,9.95
2023-05-10T15:52:19.279Z,9.90
2023-05-10T15:57:16.025Z,9.88
2023-05-10T16:02:12.559Z,9.43
2023-05-10T16:07:11.479Z,11.20
2023-05-10T16:12:08.283Z,10.18
2023-05-10T16:17:05.014Z,10.07
2023-05-10T16:22:03.260Z,10.90
2023-05-10T16:26:59.696Z,11.40
2023-05-10T16:31:56.096Z,13.07
2023-05-10T16:36:53.625Z,12.88
2023-05-10T16:41:50.102Z,12.00
2023-05-10T16:46:47.019Z,12.77
2023-05-10T16:51:43.677Z,13.30
2023-05-10T16:56:40.132Z,12.75
2023-05-10T17:01:36.806Z,12.48
2023-05-10T17:06:33.371Z,12.80
2023-05-10T17:11:30.086Z,12.05
2023-05-10T17:16:27.281Z,13.15
2023-05-10T17:21:23.695Z,11.75
2023-05-10T17:26:20.148Z,11.05
2023-05-10T17:31:16.981Z,11.82
2023-05-10T17:36:13.413Z,10.70
2023-05-10T17:41:10.064Z,11.90
2023-05-10T17:46:06.498Z,10.73
2023-05-10T17:51:04.208Z,11.23
2023-05-10T17:56:01.547Z,11.95
2023-05-10T18:00:58.111Z,12.48
2023-05-10T18:05:55.242Z,13.02
2023-05-10T18:10:56.319Z,12.68
2023-05-10T18:15:53.411Z,12.82
2023-05-10T18:20:56.452Z,12.45
2023-05-10T18:25:53.291Z,12.50
2023-05-10T18:30:51.038Z,13.23
2023-05-10T18:35:51.466Z,14.15
2023-05-10T18:40:47.949Z,15.25
2023-05-10T18:45:47.131Z,14.50
2023-05-10T18:50:43.704Z,11.90
2023-05-10T18:55:40.159Z,12.25
2023-05-10T19:00:36.691Z,13.20
2023-05-10T19:05:33.208Z,13.52
2023-05-10T19:10:29.641Z,17.48
2023-05-10T19:15:26.130Z,14.02
2023-05-10T19:20:23.070Z,13.30
2023-05-10T19:25:20.268Z,12.40
2023-05-10T19:30:16.856Z,12.50
2023-05-10T19:35:14.910Z,12.07
2023-05-10T19:40:18.354Z,11.35
2023-05-10T19:45:15.922Z,11.23
2023-05-10T19:50:17.150Z,9.80
2023-05-10T19:55:24.793Z,11.23
2023-05-10T20:00:21.624Z,9.90
2023-05-10T20:05:18.358Z,10.40
2023-05-10T20:10:15.748Z,10.82
2023-05-10T20:15:12.228Z,11.90
2023-05-10T20:20:08.881Z,11.25
2023-05-10T20:25:05.862Z,11.43
2023-05-10T20:30:02.436Z,11.25
2023-05-10T20:34:59.015Z,12.25
2023-05-10T20:39:55.582Z,11.57
2023-05-10T20:44:52.394Z,12.13
2023-05-10T20:49:49.215Z,12.55
2023-05-10T20:54:45.728Z,13.52
2023-05-10T20:59:42.876Z,13.98
2023-05-10T21:04:39.360Z,13.38
2023-05-10T21:09:35.811Z,15.15
2023-05-10T21:14:32.343Z,14.88
2023-05-10T21:19:28.732Z,15.07
2023-05-10T21:24:25.209Z,15.40
2023-05-10T21:29:21.702Z,16.08
2023-05-10T21:34:18.171Z,17.15
2023-05-10T21:39:16.919Z,18.27
2023-05-10T21:44:13.374Z,20.63
2023-05-10T21:49:09.854Z,21.13
2023-05-10T21:54:13.416Z,19.83
2023-05-10T21:59:09.967Z,24.63
2023-05-10T22:04:06.420Z,21.75
2023-05-10T22:09:02.890Z,22.50
2023-05-10T22:13:59.333Z,23.77
2023-05-10T22:18:55.914Z,22.20
2023-05-10T22:23:52.409Z,20.35
2023-05-10T22:28:48.833Z,18.13
2023-05-10T22:33:45.301Z,22.05
2023-05-10T22:38:42.172Z,21.45
2023-05-10T22:43:38.878Z,17.67
2023-05-10T22:48:35.614Z,19.75
2023-05-10T22:53:32.034Z,20.70
2023-05-10T22:58:28.615Z,19.83
2023-05-10T23:03:25.507Z,23.45
2023-05-10T23:08:22.565Z,21.27
2023-05-10T23:13:22.049Z,25.92
2023-05-10T23:18:19.449Z,22.52
2023-05-10T23:23:16.615Z,26.08
2023-05-10T23:28:13.099Z,24.90
2023-05-10T23:33:09.586Z,25.45
2023-05-10T23:38:06.079Z,24.27
2023-05-10T23:43:02.549Z,26.30
2023-05-10T23:47:59.163Z,24.55
2023-05-10T23:52:55.642Z,30.13
2023-05-10T23:57:52.095Z,26.83
